sensor_id;sensor_type;location;lat;lon;timestamp;temperature;humidity
18408;DHT22;9330;52.210;21.174;2024-02-16T00:00:24;7.00;1.00
18408;DHT22;9330;52.210;21.174;2024-02-16T00:02:52;7.10;1.00
18408;DHT22;9330;52.210;21.174;2024-02-16T00:05:19;7.10;1.00
18408;DHT22;9330;52.210;21.174;2024-02-16T00:07:46;7.00;1.00
18408;DHT22;9330;52.210;21.174;2024-02-16T00:10:14;7.10;1.00
18408;DHT22;9330;52.210;21.174;2024-02-16T00:12:44;7.00;1.00
18408;DHT22;9330;52.210;21.174;2024-02-16T00:15:11;7.10;1.00
18408;DHT22;9330;52.210;21.174;2024-02-16T00:17:38;7.10;1.00
18408;DHT22;9330;52.210;21.174;2024-02-16T00:20:06;7.00;1.00
18408;DHT22;9330;52.210;21.174;2024-02-16T00:22:34;7.00;1.00
18408;DHT22;9330;52.210;21.174;2024-02-16T00:25:01;7.00;1.00
18408;DHT22;9330;52.210;21.174;2024-02-16T00:27:30;7.10;1.00
18408;DHT22;9330;52.210;21.174;2024-02-16T00:29:57;7.00;1.00
18408;DHT22;9330;52.210;21.174;2024-02-16T00:32:24;7.00;1.00
18408;DHT22;9330;52.210;21.174;2024-02-16T00:34:56;7.00;1.00
18408;DHT22;9330;52.210;21.174;2024-02-16T00:37:24;6.90;1.00
18408;DHT22;9330;52.210;21.174;2024-02-16T00:39:51;7.00;1.00
18408;DHT22;9330;52.210;21.174;2024-02-16T00:42:20;7.00;1.00
18408;DHT22;9330;52.210;21.174;2024-02-16T00:44:50;7.00;1.00
18408;DHT22;9330;52.210;21.174;2024-02-16T00:47:17;7.00;1.00
18408;DHT22;9330;52.210;21.174;2024-02-16T00:49:44;7.00;1.00
18408;DHT22;9330;52.210;21.174;2024-02-16T00:52:11;7.00;99.90
18408;DHT22;9330;52.210;21.174;2024-02-16T00:54:38;7.00;99.90
18408;DHT22;9330;52.210;21.174;2024-02-16T00:57:05;7.00;99.90
18408;DHT22;9330;52.210;21.174;2024-02-16T00:59:32;7.00;99.90
18408;DHT22;9330;52.210;21.174;2024-02-16T01:02:00;7.00;99.90
18408;DHT22;9330;52.210;21.174;2024-02-16T01:04:27;7.00;99.90
18408;DHT22;9330;52.210;21.174;2024-02-16T01:06:55;7.00;24.90
18408;DHT22;9330;52.210;21.174;2024-02-16T01:09:22;7.10;99.90
18408;DHT22;9330;52.210;21.174;2024-02-16T01:11:49;7.00;32.20
18408;DHT22;9330;52.210;21.174;2024-02-16T01:14:16;7.00;1.00
18408;DHT22;9330;52.210;21.174;2024-02-16T01:16:43;7.00;1.00
18408;DHT22;9330;52.210;21.174;2024-02-16T01:19:11;7.00;1.00
18408;DHT22;9330;52.210;21.174;2024-02-16T01:21:38;7.00;1.00
18408;DHT22;9330;52.210;21.174;2024-02-16T01:24:06;7.10;1.00
18408;DHT22;9330;52.210;21.174;2024-02-16T01:26:34;7.10;1.00
18408;DHT22;9330;52.210;21.174;2024-02-16T01:29:01;7.00;1.00
18408;DHT22;9330;52.210;21.174;2024-02-16T01:31:28;7.00;1.00
18408;DHT22;9330;52.210;21.174;2024-02-16T01:33:55;7.00;1.00
18408;DHT22;9330;52.210;21.174;2024-02-16T01:36:24;7.00;1.00
18408;DHT22;9330;52.210;21.174;2024-02-16T01:38:51;7.00;1.00
18408;DHT22;9330;52.210;21.174;2024-02-16T01:41:17;7.00;1.00
18408;DHT22;9330;52.210;21.174;2024-02-16T01:43:44;6.90;1.00
18408;DHT22;9330;52.210;21.174;2024-02-16T01:46:11;6.90;1.00
18408;DHT22;9330;52.210;21.174;2024-02-16T01:48:38;6.90;1.00
18408;DHT22;9330;52.210;21.174;2024-02-16T01:51:07;6.90;1.00
18408;DHT22;9330;52.210;21.174;2024-02-16T01:53:36;6.90;1.00
18408;DHT22;9330;52.210;21.174;2024-02-16T01:56:03;6.80;1.00
18408;DHT22;9330;52.210;21.174;2024-02-16T01:58:31;6.80;1.00
18408;DHT22;9330;52.210;21.174;2024-02-16T02:00:58;6.70;1.00
18408;DHT22;9330;52.210;21.174;2024-02-16T02:03:25;6.70;1.00
18408;DHT22;9330;52.210;21.174;2024-02-16T02:05:52;6.70;1.00
18408;DHT22;9330;52.210;21.174;2024-02-16T02:08:20;6.60;1.00
18408;DHT22;9330;52.210;21.174;2024-02-16T02:10:48;6.60;1.00
18408;DHT22;9330;52.210;21.174;2024-02-16T02:13:15;6.60;1.00
18408;DHT22;9330;52.210;21.174;2024-02-16T02:15:42;6.50;1.00
18408;DHT22;9330;52.210;21.174;2024-02-16T02:18:09;6.50;1.00
18408;DHT22;9330;52.210;21.174;2024-02-16T02:20:36;6.50;1.00
18408;DHT22;9330;52.210;21.174;2024-02-16T02:23:04;6.50;1.00
18408;DHT22;9330;52.210;21.174;2024-02-16T02:25:31;6.40;1.00
18408;DHT22;9330;52.210;21.174;2024-02-16T02:28:00;6.40;1.00
18408;DHT22;9330;52.210;21.174;2024-02-16T02:30:28;6.30;1.00
18408;DHT22;9330;52.210;21.174;2024-02-16T02:32:55;6.30;1.00
18408;DHT22;9330;52.210;21.174;2024-02-16T02:35:22;6.30;1.00
18408;DHT22;9330;52.210;21.174;2024-02-16T02:37:49;6.20;1.00
18408;DHT22;9330;52.210;21.174;2024-02-16T02:40:18;6.20;1.00
18408;DHT22;9330;52.210;21.174;2024-02-16T02:42:44;6.20;1.00
18408;DHT22;9330;52.210;21.174;2024-02-16T02:45:11;6.20;1.00
18408;DHT22;9330;52.210;21.174;2024-02-16T02:47:38;6.10;1.00
18408;DHT22;9330;52.210;21.174;2024-02-16T02:50:06;6.10;1.00
18408;DHT22;9330;52.210;21.174;2024-02-16T02:52:33;6.10;1.00
18408;DHT22;9330;52.210;21.174;2024-02-16T02:55:00;6.00;39.20
18408;DHT22;9330;52.210;21.174;2024-02-16T02:57:28;6.00;51.70
18408;DHT22;9330;52.210;21.174;2024-02-16T03:00:03;5.90;6.50
18408;DHT22;9330;52.210;21.174;2024-02-16T03:02:31;5.90;79.20
18408;DHT22;9330;52.210;21.174;2024-02-16T03:04:58;5.80;99.90
18408;DHT22;9330;52.210;21.174;2024-02-16T03:07:25;5.80;99.90
18408;DHT22;9330;52.210;21.174;2024-02-16T03:09:53;5.70;99.90
18408;DHT22;9330;52.210;21.174;2024-02-16T03:12:19;5.80;99.90
18408;DHT22;9330;52.210;21.174;2024-02-16T03:14:49;5.70;99.90
18408;DHT22;9330;52.210;21.174;2024-02-16T03:17:15;5.70;99.90
18408;DHT22;9330;52.210;21.174;2024-02-16T03:19:42;5.70;99.90
18408;DHT22;9330;52.210;21.174;2024-02-16T03:22:09;5.70;1.00
18408;DHT22;9330;52.210;21.174;2024-02-16T03:24:36;5.60;1.00
18408;DHT22;9330;52.210;21.174;2024-02-16T03:27:03;5.70;1.00
18408;DHT22;9330;52.210;21.174;2024-02-16T03:29:30;5.60;99.90
18408;DHT22;9330;52.210;21.174;2024-02-16T03:31:59;5.50;1.00
18408;DHT22;9330;52.210;21.174;2024-02-16T03:34:26;5.50;1.00
18408;DHT22;9330;52.210;21.174;2024-02-16T03:36:52;5.50;1.00
18408;DHT22;9330;52.210;21.174;2024-02-16T03:39:19;5.40;1.00
18408;DHT22;9330;52.210;21.174;2024-02-16T03:41:46;5.40;1.00
18408;DHT22;9330;52.210;21.174;2024-02-16T03:44:14;5.40;1.00
18408;DHT22;9330;52.210;21.174;2024-02-16T03:46:41;5.40;1.00
18408;DHT22;9330;52.210;21.174;2024-02-16T03:49:10;5.40;1.00
18408;DHT22;9330;52.210;21.174;2024-02-16T03:51:37;5.30;1.00
18408;DHT22;9330;52.210;21.174;2024-02-16T03:54:04;5.30;1.00
18408;DHT22;9330;52.210;21.174;2024-02-16T03:56:31;5.30;1.00
18408;DHT22;9330;52.210;21.174;2024-02-16T03:58:58;5.30;1.00
18408;DHT22;9330;52.210;21.174;2024-02-16T04:01:25;5.20;1.00
18408;DHT22;9330;52.210;21.174;2024-02-16T04:03:51;5.20;1.00
18408;DHT22;9330;52.210;21.174;2024-02-16T04:06:20;5.30;1.00
18408;DHT22;9330;52.210;21.174;2024-02-16T04:08:47;5.30;1.00
18408;DHT22;9330;52.210;21.174;2024-02-16T04:11:15;5.20;1.00
18408;DHT22;9330;52.210;21.174;2024-02-16T04:13:42;5.20;1.00
18408;DHT22;9330;52.210;21.174;2024-02-16T04:16:09;5.20;1.00
18408;DHT22;9330;52.210;21.174;2024-02-16T04:18:36;5.20;1.00
18408;DHT22;9330;52.210;21.174;2024-02-16T04:21:04;5.10;1.00
18408;DHT22;9330;52.210;21.174;2024-02-16T04:23:32;5.10;1.00
18408;DHT22;9330;52.210;21.174;2024-02-16T04:25:59;5.10;1.00
18408;DHT22;9330;52.210;21.174;2024-02-16T04:28:26;5.10;1.00
18408;DHT22;9330;52.210;21.174;2024-02-16T04:30:52;5.10;1.00
18408;DHT22;9330;52.210;21.174;2024-02-16T04:33:19;5.30;1.00
18408;DHT22;9330;52.210;21.174;2024-02-16T04:35:46;5.20;1.00
18408;DHT22;9330;52.210;21.174;2024-02-16T04:38:15;5.10;1.00
18408;DHT22;9330;52.210;21.174;2024-02-16T04:40:44;5.10;1.00
18408;DHT22;9330;52.210;21.174;2024-02-16T04:43:11;5.10;1.00
18408;DHT22;9330;52.210;21.174;2024-02-16T04:45:38;5.00;1.00
18408;DHT22;9330;52.210;21.174;2024-02-16T04:48:05;5.00;1.00
18408;DHT22;9330;52.210;21.174;2024-02-16T04:50:33;5.00;1.00
18408;DHT22;9330;52.210;21.174;2024-02-16T04:53:00;5.00;1.00
18408;DHT22;9330;52.210;21.174;2024-02-16T04:55:28;5.10;1.00
18408;DHT22;9330;52.210;21.174;2024-02-16T04:57:57;4.90;1.00
18408;DHT22;9330;52.210;21.174;2024-02-16T05:00:24;4.80;1.00
18408;DHT22;9330;52.210;21.174;2024-02-16T05:02:51;4.80;1.00
18408;DHT22;9330;52.210;21.174;2024-02-16T05:05:18;4.90;1.00
18408;DHT22;9330;52.210;21.174;2024-02-16T05:07:48;4.90;1.00
18408;DHT22;9330;52.210;21.174;2024-02-16T05:10:16;4.80;1.00
18408;DHT22;9330;52.210;21.174;2024-02-16T05:12:43;4.80;1.00
18408;DHT22;9330;52.210;21.174;2024-02-16T05:15:11;4.80;1.00
18408;DHT22;9330;52.210;21.174;2024-02-16T05:17:39;4.80;1.00
18408;DHT22;9330;52.210;21.174;2024-02-16T05:20:10;4.80;1.00
18408;DHT22;9330;52.210;21.174;2024-02-16T05:22:41;4.70;1.00
18408;DHT22;9330;52.210;21.174;2024-02-16T05:25:09;4.90;1.00
18408;DHT22;9330;52.210;21.174;2024-02-16T05:27:36;4.70;1.00
18408;DHT22;9330;52.210;21.174;2024-02-16T05:30:05;4.70;1.00
18408;DHT22;9330;52.210;21.174;2024-02-16T05:32:35;4.60;1.00
18408;DHT22;9330;52.210;21.174;2024-02-16T05:35:03;4.60;1.00
18408;DHT22;9330;52.210;21.174;2024-02-16T05:37:37;4.60;1.00
18408;DHT22;9330;52.210;21.174;2024-02-16T05:40:07;4.60;1.00
18408;DHT22;9330;52.210;21.174;2024-02-16T05:42:45;4.60;1.00
18408;DHT22;9330;52.210;21.174;2024-02-16T05:45:12;4.50;1.00
18408;DHT22;9330;52.210;21.174;2024-02-16T05:47:41;4.50;1.00
18408;DHT22;9330;52.210;21.174;2024-02-16T05:50:09;4.60;1.00
18408;DHT22;9330;52.210;21.174;2024-02-16T05:52:37;4.50;1.00
18408;DHT22;9330;52.210;21.174;2024-02-16T05:55:05;4.40;89.20
18408;DHT22;9330;52.210;21.174;2024-02-16T05:57:32;4.40;96.50
18408;DHT22;9330;52.210;21.174;2024-02-16T05:59:59;4.50;1.00
18408;DHT22;9330;52.210;21.174;2024-02-16T06:02:26;4.60;1.00
18408;DHT22;9330;52.210;21.174;2024-02-16T06:04:54;4.50;18.00
18408;DHT22;9330;52.210;21.174;2024-02-16T06:07:21;4.50;1.00
18408;DHT22;9330;52.210;21.174;2024-02-16T06:09:48;4.50;1.00
18408;DHT22;9330;52.210;21.174;2024-02-16T06:12:15;4.60;1.00
18408;DHT22;9330;52.210;21.174;2024-02-16T06:14:43;4.50;34.30
18408;DHT22;9330;52.210;21.174;2024-02-16T06:17:09;4.50;1.00
18408;DHT22;9330;52.210;21.174;2024-02-16T06:19:36;4.50;99.90
18408;DHT22;9330;52.210;21.174;2024-02-16T06:22:05;4.50;1.00
18408;DHT22;9330;52.210;21.174;2024-02-16T06:24:33;4.50;1.00
18408;DHT22;9330;52.210;21.174;2024-02-16T06:27:00;4.60;28.20
18408;DHT22;9330;52.210;21.174;2024-02-16T06:29:27;4.60;17.40
18408;DHT22;9330;52.210;21.174;2024-02-16T06:31:55;4.50;1.00
18408;DHT22;9330;52.210;21.174;2024-02-16T06:34:23;4.60;41.20
18408;DHT22;9330;52.210;21.174;2024-02-16T06:36:49;4.70;1.00
18408;DHT22;9330;52.210;21.174;2024-02-16T06:39:18;4.70;1.00
18408;DHT22;9330;52.210;21.174;2024-02-16T06:41:46;4.80;1.00
18408;DHT22;9330;52.210;21.174;2024-02-16T06:44:13;4.80;1.00
18408;DHT22;9330;52.210;21.174;2024-02-16T06:46:40;4.80;1.00
18408;DHT22;9330;52.210;21.174;2024-02-16T06:49:07;5.10;1.00
18408;DHT22;9330;52.210;21.174;2024-02-16T06:51:34;5.00;99.90
18408;DHT22;9330;52.210;21.174;2024-02-16T06:54:01;5.00;99.90
18408;DHT22;9330;52.210;21.174;2024-02-16T06:56:29;5.10;99.90
18408;DHT22;9330;52.210;21.174;2024-02-16T06:58:56;5.30;62.30
18408;DHT22;9330;52.210;21.174;2024-02-16T07:01:23;5.40;1.00
18408;DHT22;9330;52.210;21.174;2024-02-16T07:03:51;5.50;1.00
18408;DHT22;9330;52.210;21.174;2024-02-16T07:06:18;5.60;1.00
18408;DHT22;9330;52.210;21.174;2024-02-16T07:08:45;5.70;99.90
18408;DHT22;9330;52.210;21.174;2024-02-16T07:11:12;5.80;68.10
18408;DHT22;9330;52.210;21.174;2024-02-16T07:13:41;5.80;99.90
18408;DHT22;9330;52.210;21.174;2024-02-16T07:16:09;5.80;99.90
18408;DHT22;9330;52.210;21.174;2024-02-16T07:18:36;6.00;1.00
18408;DHT22;9330;52.210;21.174;2024-02-16T07:21:06;6.10;1.00
18408;DHT22;9330;52.210;21.174;2024-02-16T07:23:32;6.20;1.00
18408;DHT22;9330;52.210;21.174;2024-02-16T07:25:59;6.30;1.00
18408;DHT22;9330;52.210;21.174;2024-02-16T07:28:27;6.40;99.90
18408;DHT22;9330;52.210;21.174;2024-02-16T07:30:56;6.50;99.90
18408;DHT22;9330;52.210;21.174;2024-02-16T07:33:22;6.60;5.90
18408;DHT22;9330;52.210;21.174;2024-02-16T07:35:50;6.60;99.90
18408;DHT22;9330;52.210;21.174;2024-02-16T07:38:17;6.70;1.00
18408;DHT22;9330;52.210;21.174;2024-02-16T07:40:44;6.70;1.00
18408;DHT22;9330;52.210;21.174;2024-02-16T07:43:12;6.80;1.00
18408;DHT22;9330;52.210;21.174;2024-02-16T07:45:39;6.90;1.00
18408;DHT22;9330;52.210;21.174;2024-02-16T07:48:07;7.10;1.00
18408;DHT22;9330;52.210;21.174;2024-02-16T07:50:34;7.20;1.00
18408;DHT22;9330;52.210;21.174;2024-02-16T07:53:01;7.30;1.00
18408;DHT22;9330;52.210;21.174;2024-02-16T07:55:28;7.40;1.00
18408;DHT22;9330;52.210;21.174;2024-02-16T07:57:55;7.50;99.90
18408;DHT22;9330;52.210;21.174;2024-02-16T08:00:21;7.70;99.90
18408;DHT22;9330;52.210;21.174;2024-02-16T08:02:48;7.70;1.00
18408;DHT22;9330;52.210;21.174;2024-02-16T08:05:17;8.00;21.50
18408;DHT22;9330;52.210;21.174;2024-02-16T08:07:46;8.00;1.00
18408;DHT22;9330;52.210;21.174;2024-02-16T08:10:13;8.10;1.00
18408;DHT22;9330;52.210;21.174;2024-02-16T08:12:40;8.30;1.00
18408;DHT22;9330;52.210;21.174;2024-02-16T08:15:08;8.30;1.00
18408;DHT22;9330;52.210;21.174;2024-02-16T08:17:36;8.40;1.00
18408;DHT22;9330;52.210;21.174;2024-02-16T08:20:04;8.50;1.00
18408;DHT22;9330;52.210;21.174;2024-02-16T08:22:32;8.50;1.00
18408;DHT22;9330;52.210;21.174;2024-02-16T08:25:00;8.80;1.00
18408;DHT22;9330;52.210;21.174;2024-02-16T08:27:27;8.90;99.90
18408;DHT22;9330;52.210;21.174;2024-02-16T08:29:54;8.90;99.90
18408;DHT22;9330;52.210;21.174;2024-02-16T08:32:21;9.00;99.90
18408;DHT22;9330;52.210;21.174;2024-02-16T08:34:48;9.30;99.90
18408;DHT22;9330;52.210;21.174;2024-02-16T08:37:16;9.60;93.40
18408;DHT22;9330;52.210;21.174;2024-02-16T08:39:44;9.80;1.00
18408;DHT22;9330;52.210;21.174;2024-02-16T08:42:11;10.10;1.00
18408;DHT22;9330;52.210;21.174;2024-02-16T08:44:38;10.30;1.00
18408;DHT22;9330;52.210;21.174;2024-02-16T08:47:06;10.20;1.00
18408;DHT22;9330;52.210;21.174;2024-02-16T08:49:33;10.30;1.00
18408;DHT22;9330;52.210;21.174;2024-02-16T08:52:00;10.50;1.00
18408;DHT22;9330;52.210;21.174;2024-02-16T08:54:27;10.60;1.00
18408;DHT22;9330;52.210;21.174;2024-02-16T08:56:55;10.60;1.00
18408;DHT22;9330;52.210;21.174;2024-02-16T08:59:23;11.00;1.00
18408;DHT22;9330;52.210;21.174;2024-02-16T09:01:50;11.00;99.90
18408;DHT22;9330;52.210;21.174;2024-02-16T09:04:17;11.30;99.90
18408;DHT22;9330;52.210;21.174;2024-02-16T09:06:44;11.70;99.90
18408;DHT22;9330;52.210;21.174;2024-02-16T09:09:11;12.10;82.70
18408;DHT22;9330;52.210;21.174;2024-02-16T09:11:38;12.40;23.60
18408;DHT22;9330;52.210;21.174;2024-02-16T09:14:06;12.70;43.10
18408;DHT22;9330;52.210;21.174;2024-02-16T09:16:33;13.00;1.00
18408;DHT22;9330;52.210;21.174;2024-02-16T09:19:00;12.80;1.00
18408;DHT22;9330;52.210;21.174;2024-02-16T09:21:27;12.90;1.00
18408;DHT22;9330;52.210;21.174;2024-02-16T09:23:55;12.80;1.00
18408;DHT22;9330;52.210;21.174;2024-02-16T09:26:24;12.80;1.00
18408;DHT22;9330;52.210;21.174;2024-02-16T09:28:56;12.90;1.00
18408;DHT22;9330;52.210;21.174;2024-02-16T09:31:24;12.90;1.00
18408;DHT22;9330;52.210;21.174;2024-02-16T09:33:52;12.80;1.00
18408;DHT22;9330;52.210;21.174;2024-02-16T09:36:19;12.90;1.00
18408;DHT22;9330;52.210;21.174;2024-02-16T09:38:46;12.70;1.00
18408;DHT22;9330;52.210;21.174;2024-02-16T09:41:13;12.60;1.00
18408;DHT22;9330;52.210;21.174;2024-02-16T09:43:42;12.30;1.00
18408;DHT22;9330;52.210;21.174;2024-02-16T09:46:09;12.30;1.00
18408;DHT22;9330;52.210;21.174;2024-02-16T09:48:39;12.10;1.00
18408;DHT22;9330;52.210;21.174;2024-02-16T09:51:06;11.80;1.00
18408;DHT22;9330;52.210;21.174;2024-02-16T09:53:34;11.60;1.00
18408;DHT22;9330;52.210;21.174;2024-02-16T09:56:01;11.40;1.00
18408;DHT22;9330;52.210;21.174;2024-02-16T09:58:31;11.40;1.00
18408;DHT22;9330;52.210;21.174;2024-02-16T10:00:58;11.30;16.90
18408;DHT22;9330;52.210;21.174;2024-02-16T10:03:26;11.20;91.20
18408;DHT22;9330;52.210;21.174;2024-02-16T10:06:05;11.20;99.90
18408;DHT22;9330;52.210;21.174;2024-02-16T10:08:32;11.10;99.90
18408;DHT22;9330;52.210;21.174;2024-02-16T10:11:03;11.00;99.90
18408;DHT22;9330;52.210;21.174;2024-02-16T10:13:30;11.00;99.90
18408;DHT22;9330;52.210;21.174;2024-02-16T10:16:07;11.00;99.90
18408;DHT22;9330;52.210;21.174;2024-02-16T10:18:35;11.10;99.90
18408;DHT22;9330;52.210;21.174;2024-02-16T10:21:07;11.20;99.90
18408;DHT22;9330;52.210;21.174;2024-02-16T10:23:34;11.20;99.90
18408;DHT22;9330;52.210;21.174;2024-02-16T10:26:01;11.30;99.90
18408;DHT22;9330;52.210;21.174;2024-02-16T10:28:29;11.30;99.90
18408;DHT22;9330;52.210;21.174;2024-02-16T10:30:58;11.40;99.90
18408;DHT22;9330;52.210;21.174;2024-02-16T10:33:27;11.30;99.90
18408;DHT22;9330;52.210;21.174;2024-02-16T10:35:56;11.30;99.90
18408;DHT22;9330;52.210;21.174;2024-02-16T10:38:25;11.40;99.90
18408;DHT22;9330;52.210;21.174;2024-02-16T10:40:53;11.40;99.90
18408;DHT22;9330;52.210;21.174;2024-02-16T10:43:23;11.50;99.90
18408;DHT22;9330;52.210;21.174;2024-02-16T10:45:51;11.50;99.90
18408;DHT22;9330;52.210;21.174;2024-02-16T10:48:19;11.60;99.90
18408;DHT22;9330;52.210;21.174;2024-02-16T10:50:46;11.70;99.90
18408;DHT22;9330;52.210;21.174;2024-02-16T10:53:21;11.70;99.90
18408;DHT22;9330;52.210;21.174;2024-02-16T10:55:51;11.70;99.40
18408;DHT22;9330;52.210;21.174;2024-02-16T10:58:18;11.70;99.90
18408;DHT22;9330;52.210;21.174;2024-02-16T11:00:50;11.80;99.90
18408;DHT22;9330;52.210;21.174;2024-02-16T11:03:17;11.90;99.90
18408;DHT22;9330;52.210;21.174;2024-02-16T11:05:45;11.90;99.90
18408;DHT22;9330;52.210;21.174;2024-02-16T11:08:14;11.90;99.90
18408;DHT22;9330;52.210;21.174;2024-02-16T11:10:41;12.00;99.90
18408;DHT22;9330;52.210;21.174;2024-02-16T11:13:09;12.00;99.90
18408;DHT22;9330;52.210;21.174;2024-02-16T11:15:37;12.00;99.90
18408;DHT22;9330;52.210;21.174;2024-02-16T11:18:04;12.10;99.90
18408;DHT22;9330;52.210;21.174;2024-02-16T11:20:36;12.00;99.90
18408;DHT22;9330;52.210;21.174;2024-02-16T11:23:05;12.10;99.90
18408;DHT22;9330;52.210;21.174;2024-02-16T11:25:33;12.10;99.90
18408;DHT22;9330;52.210;21.174;2024-02-16T11:28:02;12.10;99.90
18408;DHT22;9330;52.210;21.174;2024-02-16T11:30:32;12.10;99.90
18408;DHT22;9330;52.210;21.174;2024-02-16T11:33:01;12.20;99.90
18408;DHT22;9330;52.210;21.174;2024-02-16T11:35:28;12.20;99.90
18408;DHT22;9330;52.210;21.174;2024-02-16T11:37:58;12.20;99.90
18408;DHT22;9330;52.210;21.174;2024-02-16T11:40:25;12.20;99.90
18408;DHT22;9330;52.210;21.174;2024-02-16T11:42:58;12.20;99.90
18408;DHT22;9330;52.210;21.174;2024-02-16T11:45:25;12.20;99.90
18408;DHT22;9330;52.210;21.174;2024-02-16T11:48:03;12.30;99.90
18408;DHT22;9330;52.210;21.174;2024-02-16T11:50:30;12.30;1.00
18408;DHT22;9330;52.210;21.174;2024-02-16T11:52:57;12.30;1.00
18408;DHT22;9330;52.210;21.174;2024-02-16T11:55:24;12.40;99.90
18408;DHT22;9330;52.210;21.174;2024-02-16T11:57:51;12.40;99.90
18408;DHT22;9330;52.210;21.174;2024-02-16T12:00:20;12.40;1.00
18408;DHT22;9330;52.210;21.174;2024-02-16T12:02:47;12.30;99.90
18408;DHT22;9330;52.210;21.174;2024-02-16T12:05:16;12.40;99.90
18408;DHT22;9330;52.210;21.174;2024-02-16T12:07:42;12.40;99.90
18408;DHT22;9330;52.210;21.174;2024-02-16T12:10:11;12.40;99.90
18408;DHT22;9330;52.210;21.174;2024-02-16T12:12:38;12.40;99.90
18408;DHT22;9330;52.210;21.174;2024-02-16T12:15:05;12.50;1.00
18408;DHT22;9330;52.210;21.174;2024-02-16T12:17:33;12.50;1.00
18408;DHT22;9330;52.210;21.174;2024-02-16T12:20:00;12.50;99.90
18408;DHT22;9330;52.210;21.174;2024-02-16T12:22:29;12.50;99.90
18408;DHT22;9330;52.210;21.174;2024-02-16T12:24:56;12.60;99.90
18408;DHT22;9330;52.210;21.174;2024-02-16T12:27:23;12.60;99.90
18408;DHT22;9330;52.210;21.174;2024-02-16T12:29:50;12.60;99.90
18408;DHT22;9330;52.210;21.174;2024-02-16T12:32:18;12.60;99.90
18408;DHT22;9330;52.210;21.174;2024-02-16T12:34:45;12.60;99.90
18408;DHT22;9330;52.210;21.174;2024-02-16T12:37:12;12.60;99.90
18408;DHT22;9330;52.210;21.174;2024-02-16T12:39:40;12.50;99.90
18408;DHT22;9330;52.210;21.174;2024-02-16T12:42:07;12.50;99.90
18408;DHT22;9330;52.210;21.174;2024-02-16T12:44:34;12.50;99.90
18408;DHT22;9330;52.210;21.174;2024-02-16T12:47:01;12.50;99.90
18408;DHT22;9330;52.210;21.174;2024-02-16T12:49:31;12.60;99.90
18408;DHT22;9330;52.210;21.174;2024-02-16T12:52:00;12.60;99.90
18408;DHT22;9330;52.210;21.174;2024-02-16T12:54:27;12.70;99.90
18408;DHT22;9330;52.210;21.174;2024-02-16T12:56:55;12.60;99.90
18408;DHT22;9330;52.210;21.174;2024-02-16T12:59:22;12.70;99.90
18408;DHT22;9330;52.210;21.174;2024-02-16T13:01:49;12.60;99.90
18408;DHT22;9330;52.210;21.174;2024-02-16T13:04:16;12.60;99.90
18408;DHT22;9330;52.210;21.174;2024-02-16T13:06:46;12.60;99.90
18408;DHT22;9330;52.210;21.174;2024-02-16T13:09:13;12.50;99.90
18408;DHT22;9330;52.210;21.174;2024-02-16T13:11:40;12.50;99.90
18408;DHT22;9330;52.210;21.174;2024-02-16T13:14:08;12.50;99.90
18408;DHT22;9330;52.210;21.174;2024-02-16T13:16:35;12.60;99.90
18408;DHT22;9330;52.210;21.174;2024-02-16T13:19:02;12.60;99.90
18408;DHT22;9330;52.210;21.174;2024-02-16T13:21:29;12.60;99.90
18408;DHT22;9330;52.210;21.174;2024-02-16T13:23:56;12.60;99.90
18408;DHT22;9330;52.210;21.174;2024-02-16T13:26:22;12.50;99.90
18408;DHT22;9330;52.210;21.174;2024-02-16T13:28:49;12.50;99.90
18408;DHT22;9330;52.210;21.174;2024-02-16T13:31:19;12.30;99.90
18408;DHT22;9330;52.210;21.174;2024-02-16T13:33:46;12.60;99.90
18408;DHT22;9330;52.210;21.174;2024-02-16T13:36:13;12.60;99.90
18408;DHT22;9330;52.210;21.174;2024-02-16T13:38:40;12.60;99.90
18408;DHT22;9330;52.210;21.174;2024-02-16T13:41:07;12.50;99.90
18408;DHT22;9330;52.210;21.174;2024-02-16T13:43:34;12.50;99.90
18408;DHT22;9330;52.210;21.174;2024-02-16T13:46:01;12.50;99.90
18408;DHT22;9330;52.210;21.174;2024-02-16T13:48:29;12.50;99.90
18408;DHT22;9330;52.210;21.174;2024-02-16T13:50:57;12.50;99.90
18408;DHT22;9330;52.210;21.174;2024-02-16T13:53:25;12.50;99.90
18408;DHT22;9330;52.210;21.174;2024-02-16T13:55:52;12.50;99.90
18408;DHT22;9330;52.210;21.174;2024-02-16T13:58:21;12.50;99.90
18408;DHT22;9330;52.210;21.174;2024-02-16T14:00:48;12.50;99.90
18408;DHT22;9330;52.210;21.174;2024-02-16T14:03:15;12.40;99.90
18408;DHT22;9330;52.210;21.174;2024-02-16T14:05:44;12.40;99.90
18408;DHT22;9330;52.210;21.174;2024-02-16T14:08:12;12.40;99.90
18408;DHT22;9330;52.210;21.174;2024-02-16T14:10:40;12.40;99.90
18408;DHT22;9330;52.210;21.174;2024-02-16T14:13:07;12.40;99.90
18408;DHT22;9330;52.210;21.174;2024-02-16T14:15:35;12.40;99.90
18408;DHT22;9330;52.210;21.174;2024-02-16T14:18:02;12.30;99.90
18408;DHT22;9330;52.210;21.174;2024-02-16T14:20:29;12.30;99.90
18408;DHT22;9330;52.210;21.174;2024-02-16T14:22:57;12.30;99.90
18408;DHT22;9330;52.210;21.174;2024-02-16T14:25:24;12.30;99.90
18408;DHT22;9330;52.210;21.174;2024-02-16T14:27:51;12.20;99.90
18408;DHT22;9330;52.210;21.174;2024-02-16T14:30:18;12.30;99.90
18408;DHT22;9330;52.210;21.174;2024-02-16T14:32:45;12.20;99.90
18408;DHT22;9330;52.210;21.174;2024-02-16T14:35:12;12.20;99.90
18408;DHT22;9330;52.210;21.174;2024-02-16T14:37:39;12.20;99.90
18408;DHT22;9330;52.210;21.174;2024-02-16T14:40:09;12.20;99.90
18408;DHT22;9330;52.210;21.174;2024-02-16T14:42:37;12.20;99.90
18408;DHT22;9330;52.210;21.174;2024-02-16T14:45:06;12.20;99.90
18408;DHT22;9330;52.210;21.174;2024-02-16T14:47:35;12.10;99.90
18408;DHT22;9330;52.210;21.174;2024-02-16T14:50:02;12.10;99.90
18408;DHT22;9330;52.210;21.174;2024-02-16T14:52:29;12.00;99.90
18408;DHT22;9330;52.210;21.174;2024-02-16T14:54:56;11.90;99.90
18408;DHT22;9330;52.210;21.174;2024-02-16T14:57:24;11.90;99.90
18408;DHT22;9330;52.210;21.174;2024-02-16T14:59:51;11.90;99.90
18408;DHT22;9330;52.210;21.174;2024-02-16T15:02:21;11.90;99.90
18408;DHT22;9330;52.210;21.174;2024-02-16T15:04:48;11.90;99.90
18408;DHT22;9330;52.210;21.174;2024-02-16T15:07:16;11.80;99.90
18408;DHT22;9330;52.210;21.174;2024-02-16T15:09:43;11.80;99.90
18408;DHT22;9330;52.210;21.174;2024-02-16T15:12:10;11.80;99.90
18408;DHT22;9330;52.210;21.174;2024-02-16T15:14:38;11.70;99.90
18408;DHT22;9330;52.210;21.174;2024-02-16T15:17:05;11.70;99.90
18408;DHT22;9330;52.210;21.174;2024-02-16T15:19:33;11.60;99.90
18408;DHT22;9330;52.210;21.174;2024-02-16T15:22:00;11.50;99.90
18408;DHT22;9330;52.210;21.174;2024-02-16T15:24:27;11.50;99.90
18408;DHT22;9330;52.210;21.174;2024-02-16T15:26:54;11.30;99.90
18408;DHT22;9330;52.210;21.174;2024-02-16T15:29:21;11.30;99.90
18408;DHT22;9330;52.210;21.174;2024-02-16T15:31:49;11.30;99.90
18408;DHT22;9330;52.210;21.174;2024-02-16T15:34:17;11.30;99.90
18408;DHT22;9330;52.210;21.174;2024-02-16T15:36:44;11.20;99.90
18408;DHT22;9330;52.210;21.174;2024-02-16T15:39:25;11.10;99.90
18408;DHT22;9330;52.210;21.174;2024-02-16T15:41:59;11.10;99.90
18408;DHT22;9330;52.210;21.174;2024-02-16T15:44:27;11.00;99.90
18408;DHT22;9330;52.210;21.174;2024-02-16T15:46:55;10.90;99.90
18408;DHT22;9330;52.210;21.174;2024-02-16T15:49:22;10.90;1.00